createdAt,value
2019-03-10T00:01:29.191Z,7.40
2019-03-10T00:03:57.645Z,7.87
2019-03-10T00:06:26.086Z,7.90
2019-03-10T00:08:54.483Z,8.00
2019-03-10T00:11:22.874Z,7.23
2019-03-10T00:13:51.258Z,6.83
2019-03-10T00:16:19.657Z,6.80
2019-03-10T00:18:49.240Z,6.77
2019-03-10T00:21:17.624Z,7.80
2019-03-10T00:23:46.397Z,7.73
2019-03-10T00:26:14.785Z,6.60
2019-03-10T00:28:43.177Z,7.10
2019-03-10T00:31:11.569Z,6.57
2019-03-10T00:33:40.028Z,6.60
2019-03-10T00:36:08.411Z,6.50
2019-03-10T00:38:40.162Z,5.97
2019-03-10T00:41:23.396Z,6.37
2019-03-10T00:44:14.819Z,5.53
2019-03-10T00:46:58.354Z,5.83
2019-03-10T00:49:49.246Z,5.43
2019-03-10T00:52:23.467Z,5.60
2019-03-10T00:54:51.855Z,5.10
2019-03-10T00:57:20.291Z,5.13
2019-03-10T00:59:48.681Z,5.70
2019-03-10T01:02:17.074Z,5.50
2019-03-10T01:04:45.503Z,4.90
2019-03-10T01:07:13.894Z,6.03
2019-03-10T01:09:42.290Z,5.23
2019-03-10T01:12:10.680Z,5.03
2019-03-10T01:14:39.067Z,5.37
2019-03-10T01:17:07.460Z,5.50
2019-03-10T01:19:35.851Z,5.23
2019-03-10T01:22:04.247Z,5.73
2019-03-10T01:24:32.630Z,5.20
2019-03-10T01:27:01.022Z,5.13
2019-03-10T01:29:29.420Z,5.73
2019-03-10T01:32:03.680Z,5.20
2019-03-10T01:34:59.785Z,5.33
2019-03-10T01:37:28.177Z,5.60
2019-03-10T01:39:56.593Z,6.30
2019-03-10T01:42:24.987Z,5.73
2019-03-10T01:44:53.393Z,6.07
2019-03-10T01:47:21.785Z,6.00
2019-03-10T01:49:50.212Z,5.70
2019-03-10T01:52:18.587Z,6.00
2019-03-10T01:54:46.994Z,6.30
2019-03-10T01:57:15.380Z,6.23
2019-03-10T01:59:43.793Z,5.80
2019-03-10T02:02:12.244Z,6.03
2019-03-10T02:04:41.880Z,5.80
2019-03-10T02:07:10.278Z,5.50
2019-03-10T02:09:38.704Z,5.50
2019-03-10T02:12:07.168Z,5.90
2019-03-10T02:14:35.579Z,5.80
2019-03-10T02:17:04.137Z,7.20
2019-03-10T02:19:32.633Z,5.90
2019-03-10T02:22:01.088Z,6.50
2019-03-10T02:24:29.500Z,6.47
2019-03-10T02:26:57.898Z,5.80
2019-03-10T02:29:26.318Z,5.90
2019-03-10T02:31:54.697Z,5.60
2019-03-10T02:34:23.122Z,6.63
2019-03-10T02:36:51.516Z,6.73
2019-03-10T02:39:19.944Z,5.77
2019-03-10T02:41:48.330Z,5.67
2019-03-10T02:44:16.772Z,5.77
2019-03-10T02:46:45.154Z,6.23
2019-03-10T02:49:13.579Z,6.67
2019-03-10T02:51:42.066Z,6.70
2019-03-10T02:54:10.452Z,5.83
2019-03-10T02:56:38.838Z,6.00
2019-03-10T02:59:07.232Z,6.20
2019-03-10T03:01:35.633Z,6.30
2019-03-10T03:04:04.045Z,5.63
2019-03-10T03:06:32.434Z,6.27
2019-03-10T03:09:00.827Z,5.30
2019-03-10T03:11:29.267Z,6.00
2019-03-10T03:13:57.704Z,5.33
2019-03-10T03:16:26.164Z,5.37
2019-03-10T03:18:54.551Z,5.87
2019-03-10T03:21:23.025Z,5.30
2019-03-10T03:23:51.416Z,5.43
2019-03-10T03:26:19.789Z,6.00
2019-03-10T03:28:48.179Z,5.63
2019-03-10T03:31:16.597Z,5.00
2019-03-10T03:33:45.041Z,5.10
2019-03-10T03:36:16.692Z,5.07
2019-03-10T03:38:48.585Z,5.33
2019-03-10T03:41:24.830Z,5.93
2019-03-10T03:43:53.208Z,5.77
2019-03-10T03:46:21.603Z,5.63
2019-03-10T03:48:50.178Z,6.00
2019-03-10T03:51:18.602Z,5.23
2019-03-10T03:53:46.989Z,5.60
2019-03-10T03:56:15.378Z,5.20
2019-03-10T03:58:43.764Z,4.73
2019-03-10T04:01:16.806Z,4.90
2019-03-10T04:03:45.200Z,4.70
2019-03-10T04:06:13.586Z,5.20
2019-03-10T04:08:42.061Z,4.87
2019-03-10T04:11:10.455Z,5.10
2019-03-10T04:13:38.849Z,4.53
2019-03-10T04:16:07.345Z,5.23
2019-03-10T04:18:35.729Z,4.77
2019-03-10T04:21:04.249Z,4.87
2019-03-10T04:23:32.615Z,5.07
2019-03-10T04:26:01.029Z,5.20
2019-03-10T04:28:29.419Z,4.80
2019-03-10T04:30:57.823Z,4.73
2019-03-10T04:33:26.215Z,5.30
2019-03-10T04:35:54.640Z,4.17
2019-03-10T04:38:23.030Z,4.33
2019-03-10T04:40:51.445Z,4.93
2019-03-10T04:43:19.842Z,4.23
2019-03-10T04:45:48.277Z,4.53
2019-03-10T04:48:16.654Z,4.20
2019-03-10T04:50:45.080Z,4.10
2019-03-10T04:53:13.503Z,4.03
2019-03-10T04:55:49.366Z,3.60
2019-03-10T04:58:18.616Z,4.30
2019-03-10T05:00:48.687Z,3.90
2019-03-10T05:03:17.081Z,4.10
2019-03-10T05:05:45.506Z,4.00
2019-03-10T05:08:13.900Z,3.57
2019-03-10T05:10:42.320Z,3.80
2019-03-10T05:13:10.711Z,3.80
2019-03-10T05:15:39.143Z,3.03
2019-03-10T05:18:07.539Z,3.13
2019-03-10T05:20:35.965Z,3.10
2019-03-10T05:23:29.818Z,3.33
2019-03-10T05:25:58.470Z,3.30
2019-03-10T05:28:27.606Z,3.37
2019-03-10T05:30:55.997Z,3.10
2019-03-10T05:33:24.393Z,3.37
2019-03-10T05:35:52.788Z,3.37
2019-03-10T05:38:21.167Z,3.03
2019-03-10T05:40:49.579Z,3.20
2019-03-10T05:43:17.966Z,3.07
2019-03-10T05:45:46.410Z,3.00
2019-03-10T05:48:14.797Z,3.37
2019-03-10T05:50:43.230Z,3.10
2019-03-10T05:53:11.642Z,2.93
2019-03-10T05:55:40.068Z,2.50
2019-03-10T05:58:08.493Z,2.87
2019-03-10T06:00:42.533Z,2.83
2019-03-10T06:03:07.098Z,2.97
2019-03-10T06:05:35.527Z,2.53
2019-03-10T06:08:03.912Z,3.10
2019-03-10T06:10:32.359Z,2.50
2019-03-10T06:13:00.751Z,2.60
2019-03-10T06:15:29.243Z,2.47
2019-03-10T06:17:57.630Z,2.50
2019-03-10T06:20:26.021Z,2.80
2019-03-10T06:22:54.409Z,2.60
2019-03-10T06:25:22.801Z,2.43
2019-03-10T06:27:51.197Z,2.23
2019-03-10T06:30:19.583Z,2.30
2019-03-10T06:32:47.970Z,2.20
2019-03-10T06:35:16.357Z,2.20
2019-03-10T06:37:44.796Z,2.40
2019-03-10T06:40:13.147Z,3.00
2019-03-10T06:42:41.541Z,2.07
2019-03-10T06:45:09.928Z,2.27
2019-03-10T06:47:38.309Z,2.13
2019-03-10T06:50:12.100Z,2.40
2019-03-10T06:52:39.756Z,2.30
2019-03-10T06:55:08.279Z,2.00
2019-03-10T06:57:36.798Z,2.07
2019-03-10T07:00:10.873Z,2.13
2019-03-10T07:02:39.285Z,1.70
2019-03-10T07:05:10.370Z,1.77
2019-03-10T07:07:38.832Z,1.90
2019-03-10T07:10:12.006Z,1.90
2019-03-10T07:12:40.412Z,1.60
2019-03-10T07:15:10.648Z,1.80
2019-03-10T07:17:39.082Z,1.90
2019-03-10T07:20:16.399Z,1.77
2019-03-10T07:22:44.826Z,1.80
2019-03-10T07:25:13.220Z,1.73
2019-03-10T07:27:43.268Z,1.90
2019-03-10T07:30:31.469Z,1.77
2019-03-10T07:33:16.492Z,1.93
2019-03-10T07:35:46.533Z,1.50
2019-03-10T07:38:22.312Z,1.90
2019-03-10T07:40:52.342Z,1.73
2019-03-10T07:43:22.381Z,1.80
2019-03-10T07:46:10.518Z,1.63
2019-03-10T07:48:56.879Z,1.67
2019-03-10T07:51:29.658Z,2.00
2019-03-10T07:54:05.728Z,2.20
2019-03-10T07:56:35.833Z,3.33
2019-03-10T07:59:17.721Z,5.13
2019-03-10T08:01:56.747Z,6.93
2019-03-10T08:04:26.815Z,8.97
2019-03-10T08:07:00.195Z,11.93
2019-03-10T08:09:48.318Z,12.57
2019-03-10T08:12:21.318Z,14.27
2019-03-10T08:14:51.452Z,15.87
2019-03-10T08:17:21.490Z,16.63
2019-03-10T08:20:00.393Z,16.97
2019-03-10T08:22:46.658Z,17.60
2019-03-10T08:25:16.759Z,17.43
2019-03-10T08:28:02.211Z,18.30
2019-03-10T08:30:35.394Z,18.17
2019-03-10T08:33:21.544Z,17.90
2019-03-10T08:35:51.579Z,17.57
2019-03-10T08:38:30.738Z,18.00
2019-03-10T08:41:17.000Z,17.30
2019-03-10T08:43:47.041Z,17.53
2019-03-10T08:46:22.581Z,16.80
2019-03-10T08:48:52.622Z,17.23
2019-03-10T08:51:25.388Z,15.93
2019-03-10T08:53:55.423Z,15.40
2019-03-10T08:56:37.209Z,15.00
2019-03-10T08:59:07.246Z,15.53
2019-03-10T09:01:40.267Z,14.73
2019-03-10T09:04:15.819Z,14.10
2019-03-10T09:06:51.608Z,14.07
2019-03-10T09:09:38.001Z,14.37
2019-03-10T09:12:13.651Z,13.10
2019-03-10T09:15:01.880Z,12.67
2019-03-10T09:17:37.904Z,13.07
2019-03-10T09:20:11.489Z,12.57
2019-03-10T09:22:44.245Z,12.33
2019-03-10T09:25:31.023Z,11.00
2019-03-10T09:28:03.761Z,12.27
2019-03-10T09:30:33.805Z,16.23
2019-03-10T09:33:12.992Z,10.70
2019-03-10T09:35:43.062Z,14.47
2019-03-10T09:38:13.108Z,13.20
2019-03-10T09:40:45.624Z,13.10
2019-03-10T09:43:21.391Z,12.30
2019-03-10T09:45:57.171Z,11.67
2019-03-10T09:48:42.376Z,11.93
2019-03-10T09:51:12.457Z,10.90
2019-03-10T09:53:51.241Z,10.80
2019-03-10T09:56:27.015Z,10.27
2019-03-10T09:58:59.509Z,10.77
2019-03-10T10:01:35.125Z,10.00
2019-03-10T10:04:11.234Z,9.23
2019-03-10T10:06:41.279Z,9.53
2019-03-10T10:09:11.320Z,8.67
2019-03-10T10:11:47.204Z,9.00
2019-03-10T10:14:17.248Z,9.00
2019-03-10T10:16:49.991Z,8.87
2019-03-10T10:19:20.023Z,8.60
2019-03-10T10:21:50.065Z,8.77
2019-03-10T10:24:23.130Z,8.43
2019-03-10T10:26:53.173Z,7.97
2019-03-10T10:29:28.762Z,7.80
2019-03-10T10:32:07.799Z,7.70
2019-03-10T10:34:54.300Z,8.30
2019-03-10T10:37:24.336Z,7.97
2019-03-10T10:40:00.236Z,7.80
2019-03-10T10:42:36.498Z,7.47
2019-03-10T10:45:07.713Z,7.27
2019-03-10T10:47:40.431Z,7.57
2019-03-10T10:50:13.750Z,6.77
2019-03-10T10:52:43.808Z,7.40
2019-03-10T10:55:16.863Z,7.13
2019-03-10T10:57:49.383Z,7.00
2019-03-10T11:00:22.376Z,6.13
2019-03-10T11:03:08.728Z,6.57
2019-03-10T11:05:41.250Z,6.30
2019-03-10T11:08:23.305Z,6.40
2019-03-10T11:10:53.336Z,16.77
2019-03-10T11:13:32.157Z,20.00
2019-03-10T11:16:02.189Z,12.53
2019-03-10T11:18:41.424Z,12.63
2019-03-10T11:21:11.464Z,13.80
2019-03-10T11:23:47.906Z,12.37
2019-03-10T11:26:17.936Z,11.10
2019-03-10T11:29:04.280Z,10.23
2019-03-10T11:31:34.412Z,9.60
2019-03-10T11:34:04.636Z,9.47
2019-03-10T11:36:50.982Z,8.20
2019-03-10T11:39:23.692Z,8.60
2019-03-10T11:42:10.159Z,8.00
2019-03-10T11:44:56.119Z,7.80
2019-03-10T11:47:26.157Z,7.30
2019-03-10T11:50:08.583Z,7.03
2019-03-10T11:52:38.613Z,7.03
2019-03-10T11:55:09.863Z,6.40
2019-03-10T11:57:40.694Z,6.33
2019-03-10T12:00:18.553Z,5.90
2019-03-10T12:02:54.458Z,6.03
2019-03-10T12:05:27.366Z,5.70
2019-03-10T12:08:12.612Z,5.50
2019-03-10T12:10:41.044Z,5.57
2019-03-10T12:13:09.437Z,5.53
2019-03-10T12:15:37.853Z,5.40
2019-03-10T12:18:07.541Z,5.70
2019-03-10T12:20:35.950Z,5.40
2019-03-10T12:23:04.631Z,4.90
2019-03-10T12:25:33.076Z,4.70
2019-03-10T12:28:01.471Z,5.13
2019-03-10T12:30:29.958Z,6.07
2019-03-10T12:32:58.385Z,28.43
2019-03-10T12:35:34.470Z,8.30
2019-03-10T12:37:56.935Z,8.03
2019-03-10T12:40:25.361Z,8.53
2019-03-10T12:42:53.749Z,8.47
2019-03-10T12:45:22.224Z,7.17
2019-03-10T12:47:50.615Z,7.37
2019-03-10T12:50:19.069Z,7.53
2019-03-10T12:52:47.525Z,6.43
2019-03-10T12:55:15.946Z,6.57
2019-03-10T12:57:44.343Z,6.47
2019-03-10T13:00:15.450Z,5.93
2019-03-10T13:02:43.849Z,5.90
2019-03-10T13:05:12.325Z,5.40
2019-03-10T13:07:40.757Z,5.83
2019-03-10T13:10:12.604Z,5.60
2019-03-10T13:12:41.145Z,5.30
2019-03-10T13:15:14.147Z,5.03
2019-03-10T13:17:42.539Z,4.80
2019-03-10T13:20:11.965Z,4.67
2019-03-10T13:22:40.439Z,5.10
2019-03-10T13:25:13.076Z,4.43
2019-03-10T13:27:41.528Z,4.57
2019-03-10T13:30:12.163Z,4.37
2019-03-10T13:32:40.542Z,4.13
2019-03-10T13:35:09.083Z,4.10
2019-03-10T13:37:37.475Z,3.80
2019-03-10T13:40:08.462Z,3.73
2019-03-10T13:42:36.896Z,3.60
2019-03-10T13:45:08.653Z,3.47
2019-03-10T13:47:37.044Z,3.67
2019-03-10T13:50:08.933Z,3.50
2019-03-10T13:52:37.351Z,3.27
2019-03-10T13:55:07.259Z,3.63
2019-03-10T13:57:35.663Z,3.40
2019-03-10T14:00:16.281Z,3.50
2019-03-10T14:02:44.682Z,3.27
2019-03-10T14:05:13.093Z,3.37
2019-03-10T14:07:41.469Z,3.00
2019-03-10T14:10:11.107Z,3.30
2019-03-10T14:12:39.511Z,2.97
2019-03-10T14:15:18.050Z,3.10
2019-03-10T14:17:46.446Z,3.30
2019-03-10T14:20:15.781Z,2.90
2019-03-10T14:22:44.189Z,3.40
2019-03-10T14:25:14.116Z,2.83
2019-03-10T14:27:42.551Z,2.70
2019-03-10T14:30:16.168Z,3.40
2019-03-10T14:32:44.626Z,2.70
2019-03-10T14:35:13.033Z,3.10
2019-03-10T14:37:41.464Z,2.93
2019-03-10T14:40:17.575Z,2.83
2019-03-10T14:42:45.993Z,2.50
2019-03-10T14:45:16.221Z,2.90
2019-03-10T14:47:44.609Z,2.50
2019-03-10T14:50:15.480Z,2.43
2019-03-10T14:52:43.869Z,2.40
2019-03-10T14:55:15.521Z,2.40
2019-03-10T14:57:44.088Z,2.33
2019-03-10T15:00:23.624Z,2.73
2019-03-10T15:02:52.091Z,1.93
2019-03-10T15:05:20.494Z,2.20
2019-03-10T15:07:48.901Z,2.20
2019-03-10T15:10:17.292Z,1.90
2019-03-10T15:12:45.687Z,2.00
2019-03-10T15:15:22.360Z,2.00
2019-03-10T15:17:46.728Z,2.10
2019-03-10T15:20:16.047Z,2.07
2019-03-10T15:22:44.446Z,2.20
2019-03-10T15:25:19.566Z,2.23
2019-03-10T15:27:47.971Z,1.90
2019-03-10T15:30:22.152Z,2.00
2019-03-10T15:32:50.545Z,1.73
2019-03-10T15:35:18.937Z,1.73
2019-03-10T15:37:47.315Z,1.87
2019-03-10T15:40:19.363Z,1.80
2019-03-10T15:42:47.748Z,1.80
2019-03-10T15:45:17.201Z,1.90
2019-03-10T15:47:45.692Z,1.70
2019-03-10T15:50:23.466Z,1.60
2019-03-10T15:52:51.896Z,1.77
2019-03-10T15:55:20.331Z,1.43
2019-03-10T15:57:50.407Z,1.83
2019-03-10T16:00:20.737Z,1.90
2019-03-10T16:02:49.208Z,1.83
2019-03-10T16:05:17.680Z,1.57
2019-03-10T16:07:46.136Z,1.70
2019-03-10T16:10:15.170Z,1.60
2019-03-10T16:12:43.596Z,2.00
2019-03-10T16:15:28.624Z,1.60
2019-03-10T16:17:59.700Z,1.67
2019-03-10T16:20:28.211Z,1.87
2019-03-10T16:22:56.588Z,1.77
2019-03-10T16:25:25.040Z,1.60
2019-03-10T16:27:53.461Z,1.70
2019-03-10T16:30:24.051Z,1.70
2019-03-10T16:32:52.479Z,1.53
2019-03-10T16:35:22.303Z,1.50
2019-03-10T16:37:50.953Z,1.57
2019-03-10T16:40:20.286Z,1.40
2019-03-10T16:42:48.744Z,1.77
2019-03-10T16:45:24.624Z,1.60
2019-03-10T16:47:53.016Z,1.37
2019-03-10T16:50:22.737Z,1.37
2019-03-10T16:52:51.130Z,1.60
2019-03-10T16:55:19.522Z,1.50
2019-03-10T16:57:47.911Z,1.60
2019-03-10T17:00:17.341Z,1.27
2019-03-10T17:02:45.741Z,1.47
2019-03-10T17:05:17.428Z,1.50
2019-03-10T17:07:45.852Z,1.60
2019-03-10T17:10:22.803Z,1.80
2019-03-10T17:12:51.246Z,1.50
2019-03-10T17:15:23.436Z,1.70
2019-03-10T17:17:51.957Z,1.40
2019-03-10T17:20:20.507Z,1.50
2019-03-10T17:22:48.928Z,1.77
2019-03-10T17:25:17.776Z,1.67
2019-03-10T17:27:46.285Z,1.50
2019-03-10T17:30:23.946Z,1.30
2019-03-10T17:32:52.471Z,1.63
2019-03-10T17:35:21.411Z,1.40
2019-03-10T17:37:49.846Z,1.57
2019-03-10T17:40:22.598Z,1.50
2019-03-10T17:42:51.091Z,2.13
2019-03-10T17:45:20.327Z,1.83
2019-03-10T17:47:48.774Z,1.80
2019-03-10T17:50:17.990Z,1.80
2019-03-10T17:52:46.662Z,1.80
2019-03-10T17:55:20.143Z,1.63
2019-03-10T17:57:48.642Z,1.60
2019-03-10T18:00:19.624Z,1.70
2019-03-10T18:02:48.042Z,1.77
2019-03-10T18:05:16.499Z,1.67
2019-03-10T18:07:44.926Z,1.63
2019-03-10T18:10:14.968Z,1.77
2019-03-10T18:12:43.403Z,1.83
2019-03-10T18:15:13.346Z,1.57
2019-03-10T18:17:41.885Z,1.90
2019-03-10T18:20:17.680Z,1.63
2019-03-10T18:22:46.480Z,1.80
2019-03-10T18:25:15.848Z,2.07
2019-03-10T18:27:44.241Z,1.83
2019-03-10T18:30:19.879Z,2.10
2019-03-10T18:32:48.286Z,1.90
2019-03-10T18:35:16.754Z,1.97
2019-03-10T18:37:45.224Z,2.17
2019-03-10T18:40:16.250Z,1.77
2019-03-10T18:42:44.744Z,2.17
2019-03-10T18:45:15.548Z,2.10
2019-03-10T18:47:43.757Z,1.90
2019-03-10T18:50:14.602Z,2.23
2019-03-10T18:52:43.022Z,2.10
2019-03-10T18:55:12.946Z,2.13
2019-03-10T18:57:41.401Z,2.20
2019-03-10T19:00:16.308Z,1.97
2019-03-10T19:02:44.755Z,2.00
2019-03-10T19:05:13.157Z,2.67
2019-03-10T19:07:41.546Z,1.97
2019-03-10T19:10:12.106Z,2.00
2019-03-10T19:12:40.518Z,1.90
2019-03-10T19:15:16.742Z,1.73
2019-03-10T19:17:45.125Z,2.13
2019-03-10T19:20:14.758Z,2.20
2019-03-10T19:22:43.318Z,2.20
2019-03-10T19:25:13.350Z,2.37
2019-03-10T19:27:41.840Z,2.23
2019-03-10T19:30:18.451Z,2.73
2019-03-10T19:32:46.901Z,2.40
2019-03-10T19:35:15.316Z,2.60
2019-03-10T19:37:43.709Z,2.90
2019-03-10T19:40:17.061Z,3.20
2019-03-10T19:42:45.540Z,6.60
2019-03-10T19:45:19.791Z,9.80
2019-03-10T19:47:48.252Z,17.40
2019-03-10T19:50:27.096Z,22.50
2019-03-10T19:52:54.778Z,25.97
2019-03-10T19:55:23.256Z,29.47
2019-03-10T19:57:51.650Z,36.07
2019-03-10T20:00:20.923Z,32.77
2019-03-10T20:02:49.337Z,36.17
2019-03-10T20:05:17.786Z,37.50
2019-03-10T20:07:46.254Z,37.77
2019-03-10T20:10:25.538Z,38.07
2019-03-10T20:12:53.937Z,42.43
2019-03-10T20:15:24.620Z,41.13
2019-03-10T20:17:53.095Z,39.43
2019-03-10T20:20:26.848Z,38.67
2019-03-10T20:22:55.091Z,39.90
2019-03-10T20:25:23.492Z,38.70
2019-03-10T20:27:51.897Z,40.47
2019-03-10T20:30:21.542Z,39.77
2019-03-10T20:32:49.982Z,36.97
2019-03-10T20:35:18.412Z,38.23
2019-03-10T20:37:46.874Z,34.00
2019-03-10T20:40:20.000Z,35.30
2019-03-10T20:42:48.439Z,34.67
2019-03-10T20:45:16.927Z,39.30
2019-03-10T20:47:45.344Z,29.57
2019-03-10T20:50:17.731Z,27.43
2019-03-10T20:52:46.198Z,23.53
2019-03-10T20:55:15.236Z,21.27
2019-03-10T20:57:44.074Z,19.17
2019-03-10T21:00:17.143Z,18.20
2019-03-10T21:02:45.554Z,15.80
2019-03-10T21:05:13.957Z,15.23
2019-03-10T21:07:42.371Z,14.80
2019-03-10T21:10:19.648Z,13.70
2019-03-10T21:12:48.046Z,12.43
2019-03-10T21:15:21.494Z,12.03
2019-03-10T21:17:51.536Z,12.60
2019-03-10T21:20:24.015Z,10.93
2019-03-10T21:22:52.422Z,10.03
2019-03-10T21:25:26.033Z,9.60
2019-03-10T21:27:54.441Z,9.30
2019-03-10T21:30:28.227Z,9.63
2019-03-10T21:32:56.615Z,8.53
2019-03-10T21:35:25.031Z,8.23
2019-03-10T21:37:53.424Z,8.17
2019-03-10T21:40:26.613Z,7.73
2019-03-10T21:42:55.047Z,6.97
2019-03-10T21:45:23.478Z,6.70
2019-03-10T21:47:51.887Z,6.60
2019-03-10T21:50:20.628Z,6.07
2019-03-10T21:52:49.024Z,5.83
2019-03-10T21:55:18.147Z,6.00
2019-03-10T21:57:46.556Z,5.63
2019-03-10T22:00:16.495Z,5.57
2019-03-10T22:02:44.884Z,5.17
2019-03-10T22:05:15.311Z,4.90
2019-03-10T22:07:43.835Z,4.57
2019-03-10T22:10:25.757Z,4.20
2019-03-10T22:12:44.187Z,4.57
2019-03-10T22:15:14.122Z,4.13
2019-03-10T22:17:42.594Z,4.03
2019-03-10T22:20:16.347Z,3.60
2019-03-10T22:22:49.204Z,3.77
2019-03-10T22:25:15.044Z,3.40
2019-03-10T22:27:45.728Z,3.43
2019-03-10T22:30:18.661Z,3.27
2019-03-10T22:32:47.047Z,3.07
2019-03-10T22:35:15.462Z,3.30
2019-03-10T22:37:43.843Z,3.13
2019-03-10T22:40:13.988Z,2.80
2019-03-10T22:42:42.373Z,2.50
2019-03-10T22:45:18.564Z,2.90
2019-03-10T22:47:46.959Z,2.70
2019-03-10T22:50:16.030Z,2.40
2019-03-10T22:52:44.571Z,2.80
2019-03-10T22:55:13.937Z,2.10
2019-03-10T22:57:42.351Z,2.03
2019-03-10T23:00:19.624Z,2.20
2019-03-10T23:02:48.014Z,2.33
2019-03-10T23:05:16.547Z,2.20
2019-03-10T23:07:44.925Z,1.80
2019-03-10T23:10:14.518Z,2.30
2019-03-10T23:12:42.892Z,2.07
2019-03-10T23:15:12.718Z,1.87
2019-03-10T23:17:41.135Z,1.90
2019-03-10T23:20:14.322Z,1.50
2019-03-10T23:22:42.703Z,1.60
2019-03-10T23:25:11.121Z,1.60
2019-03-10T23:27:39.502Z,2.10
2019-03-10T23:30:11.425Z,1.53
2019-03-10T23:32:39.818Z,1.50
2019-03-10T23:35:08.404Z,1.67
2019-03-10T23:37:36.788Z,1.40
2019-03-10T23:40:08.712Z,1.30
2019-03-10T23:42:37.100Z,1.20
2019-03-10T23:45:07.869Z,1.30
2019-03-10T23:47:36.256Z,1.10
2019-03-10T23:50:05.929Z,1.20
2019-03-10T23:52:34.319Z,1.10
2019-03-10T23:55:02.744Z,1.00
2019-03-10T23:57:31.202Z,1.10
2019-03-10T23:59:59.632Z,1.10
